Capitol Logistics 1129


EBLG
Liège Airport
Liege, BE
EGNX
East Midlands Airport
Derby, GB

Activity Log

Date Flight Route Aircraft Duration
01/18/2020 CPX1129 BUB7S BUB L608 DENUT L610 HEMEL T420 WELIN PIGO1J B738 1h 05m
10/22/2019 CPX729 Not Available B738 1h 05m
10/18/2019 CPX729 N0447F320 BUB7S BUB UL608 DENUT UL610 RAPIX L610 KOPUL/N0413F240 L610 HEMEL T420 WELIN PIGO1J B738 1h 08m
10/04/2019 CPX729 N0434F240 HELEN HELE1A B738 0h 46m

Route Details

Aircraft Information
Primary: Boeing 737-800BCF
Backup: Not Available
Route Data
Distance: 283nm
Sched. Duration: 1h 00m
Avg. Duration: 0h 90m (-9m)
Times Flown: 4
Recm'd Route: Not Available
Planned Altitude: 34,000ft
Origin Wx: EBLG 270150Z 21010KT 9999 SCT032 02/00 Q1007 NOSIG
Dest. Wx: EGNX 270150Z 20008KT CAVOK 03/M01 Q1000
Notes:

Financial History
Total Freight: 128,304lbs
Average Load: 32,076lbs/flt
Fuel Used: 20,581lbs
Avg. Fuel Used: 5,145lbs/flt
Fuel Expense: $22,845
Avg. Fuel Expense: $5,711
Avg. Fuel Cost: $1.11/lbs
Total Gross Income: $263,366
Pilot Pay: $916
Total Expenses: $28,652
Total Revenue: $210,935
Average Revenue: $65,841.60